Terminal Aerodrome Forecast
Issued by NWS Melbourne, FL

Home | Current Version | Previous Version | Text Only | Print | Product List | Glossary On
Versions: 1 2 3 4 5 6 7 8 9 10 11 12 13 14 15 16 17 18 19 20 21 22 23
000
FTUS42 KMLB 221123
TAFMCO
TAF
KMCO 221123Z 2212/2312 08005KT P6SM FEW030 FEW100
     FM221500 07007KT P6SM FEW030
     FM221900 07011KT P6SM SCT045
     FM230100 08006KT P6SM FEW040 SCT250
     FM230600 VRB03KT P6SM FEW020 BKN250=

USA.gov is the U.S. government's official web portal to all federal, state and local government web resources and services.